sensor_id;sensor_type;location;lat;lon;timestamp;P1;durP1;ratioP1;P2;durP2;ratioP2
20982;SDS011;10650;51.528;6.748;2023-03-01T00:01:15;8.63;;;7.65;;
20982;SDS011;10650;51.528;6.748;2023-03-01T00:03:44;9.60;;;7.75;;
20982;SDS011;10650;51.528;6.748;2023-03-01T00:06:13;8.30;;;7.50;;
20982;SDS011;10650;51.528;6.748;2023-03-01T00:08:41;10.40;;;7.70;;
20982;SDS011;10650;51.528;6.748;2023-03-01T00:11:12;8.63;;;7.57;;
20982;SDS011;10650;51.528;6.748;2023-03-01T00:13:41;9.48;;;7.97;;
20982;SDS011;10650;51.528;6.748;2023-03-01T00:16:10;11.35;;;8.15;;
20982;SDS011;10650;51.528;6.748;2023-03-01T00:18:40;11.07;;;8.63;;
20982;SDS011;10650;51.528;6.748;2023-03-01T00:21:08;9.43;;;7.75;;
20982;SDS011;10650;51.528;6.748;2023-03-01T00:23:36;9.40;;;8.27;;
20982;SDS011;10650;51.528;6.748;2023-03-01T00:26:06;11.23;;;8.25;;
20982;SDS011;10650;51.528;6.748;2023-03-01T00:28:36;9.13;;;8.23;;
20982;SDS011;10650;51.528;6.748;2023-03-01T00:31:04;9.70;;;8.10;;
20982;SDS011;10650;51.528;6.748;2023-03-01T00:33:32;9.98;;;8.38;;
20982;SDS011;10650;51.528;6.748;2023-03-01T00:36:01;11.10;;;8.45;;
20982;SDS011;10650;51.528;6.748;2023-03-01T00:38:29;9.88;;;8.63;;
20982;SDS011;10650;51.528;6.748;2023-03-01T00:41:02;9.68;;;8.15;;
20982;SDS011;10650;51.528;6.748;2023-03-01T00:43:34;12.05;;;8.25;;
20982;SDS011;10650;51.528;6.748;2023-03-01T00:46:04;10.95;;;8.45;;
20982;SDS011;10650;51.528;6.748;2023-03-01T00:48:33;11.43;;;9.02;;
20982;SDS011;10650;51.528;6.748;2023-03-01T00:51:05;12.40;;;9.10;;
20982;SDS011;10650;51.528;6.748;2023-03-01T00:53:34;9.95;;;8.60;;
20982;SDS011;10650;51.528;6.748;2023-03-01T00:56:02;11.82;;;9.02;;
20982;SDS011;10650;51.528;6.748;2023-03-01T00:58:31;10.95;;;8.90;;
20982;SDS011;10650;51.528;6.748;2023-03-01T01:01:01;11.00;;;9.35;;
20982;SDS011;10650;51.528;6.748;2023-03-01T01:03:44;13.07;;;9.52;;
20982;SDS011;10650;51.528;6.748;2023-03-01T01:06:13;11.07;;;9.05;;
20982;SDS011;10650;51.528;6.748;2023-03-01T01:08:42;10.82;;;9.43;;
20982;SDS011;10650;51.528;6.748;2023-03-01T01:11:10;9.65;;;8.63;;
20982;SDS011;10650;51.528;6.748;2023-03-01T01:13:38;12.35;;;9.07;;
20982;SDS011;10650;51.528;6.748;2023-03-01T01:16:07;10.90;;;8.88;;
20982;SDS011;10650;51.528;6.748;2023-03-01T01:18:35;10.13;;;8.63;;
20982;SDS011;10650;51.528;6.748;2023-03-01T01:21:04;11.57;;;8.68;;
20982;SDS011;10650;51.528;6.748;2023-03-01T01:23:33;19.25;;;11.52;;
20982;SDS011;10650;51.528;6.748;2023-03-01T01:26:04;13.52;;;9.75;;
20982;SDS011;10650;51.528;6.748;2023-03-01T01:31:01;12.48;;;8.82;;
20982;SDS011;10650;51.528;6.748;2023-03-01T01:33:30;11.85;;;8.93;;
20982;SDS011;10650;51.528;6.748;2023-03-01T01:35:58;13.30;;;9.30;;
20982;SDS011;10650;51.528;6.748;2023-03-01T01:38:26;11.73;;;8.73;;
20982;SDS011;10650;51.528;6.748;2023-03-01T01:40:54;9.65;;;8.65;;
20982;SDS011;10650;51.528;6.748;2023-03-01T01:43:23;11.35;;;9.13;;
20982;SDS011;10650;51.528;6.748;2023-03-01T01:45:52;10.65;;;8.98;;
20982;SDS011;10650;51.528;6.748;2023-03-01T01:48:23;12.07;;;9.10;;
20982;SDS011;10650;51.528;6.748;2023-03-01T01:51:09;11.18;;;9.45;;
20982;SDS011;10650;51.528;6.748;2023-03-01T01:53:40;11.32;;;8.85;;
20982;SDS011;10650;51.528;6.748;2023-03-01T01:56:12;10.93;;;9.02;;
20982;SDS011;10650;51.528;6.748;2023-03-01T01:58:42;12.10;;;9.13;;
20982;SDS011;10650;51.528;6.748;2023-03-01T02:01:11;12.60;;;9.38;;
20982;SDS011;10650;51.528;6.748;2023-03-01T02:03:39;13.48;;;8.70;;
20982;SDS011;10650;51.528;6.748;2023-03-01T02:06:13;11.88;;;8.85;;
20982;SDS011;10650;51.528;6.748;2023-03-01T02:08:46;11.93;;;9.15;;
20982;SDS011;10650;51.528;6.748;2023-03-01T02:11:16;11.68;;;9.20;;
20982;SDS011;10650;51.528;6.748;2023-03-01T02:13:46;11.70;;;8.93;;
20982;SDS011;10650;51.528;6.748;2023-03-01T02:16:15;12.13;;;9.23;;
20982;SDS011;10650;51.528;6.748;2023-03-01T02:18:44;13.52;;;9.45;;
20982;SDS011;10650;51.528;6.748;2023-03-01T02:21:17;11.05;;;8.93;;
20982;SDS011;10650;51.528;6.748;2023-03-01T02:23:56;12.45;;;9.95;;
20982;SDS011;10650;51.528;6.748;2023-03-01T02:26:29;10.65;;;9.05;;
20982;SDS011;10650;51.528;6.748;2023-03-01T02:29:05;13.15;;;9.68;;
20982;SDS011;10650;51.528;6.748;2023-03-01T02:31:33;13.73;;;9.45;;
20982;SDS011;10650;51.528;6.748;2023-03-01T02:34:10;11.63;;;9.10;;
20982;SDS011;10650;51.528;6.748;2023-03-01T02:36:41;11.85;;;9.10;;
20982;SDS011;10650;51.528;6.748;2023-03-01T02:39:14;15.15;;;10.30;;
20982;SDS011;10650;51.528;6.748;2023-03-01T02:41:46;13.57;;;9.68;;
20982;SDS011;10650;51.528;6.748;2023-03-01T02:44:18;12.23;;;10.05;;
20982;SDS011;10650;51.528;6.748;2023-03-01T02:46:47;11.30;;;8.90;;
20982;SDS011;10650;51.528;6.748;2023-03-01T02:49:17;16.20;;;10.07;;
20982;SDS011;10650;51.528;6.748;2023-03-01T02:51:52;14.15;;;10.60;;
20982;SDS011;10650;51.528;6.748;2023-03-01T02:54:36;15.00;;;10.02;;
20982;SDS011;10650;51.528;6.748;2023-03-01T02:57:10;13.52;;;9.73;;
20982;SDS011;10650;51.528;6.748;2023-03-01T02:59:40;13.35;;;10.50;;
20982;SDS011;10650;51.528;6.748;2023-03-01T03:02:18;13.50;;;10.15;;
20982;SDS011;10650;51.528;6.748;2023-03-01T03:05:06;14.32;;;10.35;;
20982;SDS011;10650;51.528;6.748;2023-03-01T03:07:36;13.65;;;9.55;;
20982;SDS011;10650;51.528;6.748;2023-03-01T03:10:07;15.13;;;10.55;;
20982;SDS011;10650;51.528;6.748;2023-03-01T03:12:38;15.13;;;9.95;;
20982;SDS011;10650;51.528;6.748;2023-03-01T03:15:09;16.10;;;10.82;;
20982;SDS011;10650;51.528;6.748;2023-03-01T03:17:39;14.27;;;10.63;;
20982;SDS011;10650;51.528;6.748;2023-03-01T03:20:11;12.65;;;10.23;;
20982;SDS011;10650;51.528;6.748;2023-03-01T03:22:45;13.25;;;10.13;;
20982;SDS011;10650;51.528;6.748;2023-03-01T03:25:14;12.70;;;10.20;;
20982;SDS011;10650;51.528;6.748;2023-03-01T03:27:43;14.05;;;10.23;;
20982;SDS011;10650;51.528;6.748;2023-03-01T03:30:14;12.48;;;9.75;;
20982;SDS011;10650;51.528;6.748;2023-03-01T03:32:43;12.18;;;10.05;;
20982;SDS011;10650;51.528;6.748;2023-03-01T03:35:19;12.20;;;9.80;;
20982;SDS011;10650;51.528;6.748;2023-03-01T03:37:47;12.38;;;10.10;;
20982;SDS011;10650;51.528;6.748;2023-03-01T03:40:32;14.23;;;10.35;;
20982;SDS011;10650;51.528;6.748;2023-03-01T03:43:02;14.85;;;10.85;;
20982;SDS011;10650;51.528;6.748;2023-03-01T03:45:32;14.07;;;10.07;;
20982;SDS011;10650;51.528;6.748;2023-03-01T03:48:01;16.35;;;11.30;;
20982;SDS011;10650;51.528;6.748;2023-03-01T03:50:30;12.40;;;10.10;;
20982;SDS011;10650;51.528;6.748;2023-03-01T03:53:00;14.73;;;10.68;;
20982;SDS011;10650;51.528;6.748;2023-03-01T03:55:28;13.52;;;11.15;;
20982;SDS011;10650;51.528;6.748;2023-03-01T03:57:57;12.50;;;10.25;;
20982;SDS011;10650;51.528;6.748;2023-03-01T04:00:28;15.48;;;11.05;;
20982;SDS011;10650;51.528;6.748;2023-03-01T04:02:57;15.23;;;10.27;;
20982;SDS011;10650;51.528;6.748;2023-03-01T04:05:25;13.90;;;10.27;;
20982;SDS011;10650;51.528;6.748;2023-03-01T04:07:53;12.40;;;10.70;;
20982;SDS011;10650;51.528;6.748;2023-03-01T04:10:34;13.45;;;10.68;;
20982;SDS011;10650;51.528;6.748;2023-03-01T04:13:03;12.73;;;9.85;;
20982;SDS011;10650;51.528;6.748;2023-03-01T04:15:31;15.75;;;10.93;;
20982;SDS011;10650;51.528;6.748;2023-03-01T04:18:01;13.60;;;10.35;;
20982;SDS011;10650;51.528;6.748;2023-03-01T04:20:30;17.42;;;10.45;;
20982;SDS011;10650;51.528;6.748;2023-03-01T04:23:01;11.30;;;8.67;;
20982;SDS011;10650;51.528;6.748;2023-03-01T04:25:37;17.73;;;10.75;;
20982;SDS011;10650;51.528;6.748;2023-03-01T04:28:06;13.73;;;10.13;;
20982;SDS011;10650;51.528;6.748;2023-03-01T04:30:34;13.20;;;10.18;;
20982;SDS011;10650;51.528;6.748;2023-03-01T04:33:04;12.60;;;10.27;;
20982;SDS011;10650;51.528;6.748;2023-03-01T04:35:33;14.13;;;10.27;;
20982;SDS011;10650;51.528;6.748;2023-03-01T04:38:02;13.43;;;10.02;;
20982;SDS011;10650;51.528;6.748;2023-03-01T04:40:30;15.48;;;9.90;;
20982;SDS011;10650;51.528;6.748;2023-03-01T04:42:59;15.98;;;11.02;;
20982;SDS011;10650;51.528;6.748;2023-03-01T04:45:26;12.93;;;10.18;;
20982;SDS011;10650;51.528;6.748;2023-03-01T04:47:54;14.95;;;10.73;;
20982;SDS011;10650;51.528;6.748;2023-03-01T04:50:25;12.13;;;9.95;;
20982;SDS011;10650;51.528;6.748;2023-03-01T04:52:53;13.35;;;10.80;;
20982;SDS011;10650;51.528;6.748;2023-03-01T04:55:25;13.43;;;10.25;;
20982;SDS011;10650;51.528;6.748;2023-03-01T04:57:53;14.70;;;10.05;;
20982;SDS011;10650;51.528;6.748;2023-03-01T05:00:21;14.73;;;10.35;;
20982;SDS011;10650;51.528;6.748;2023-03-01T05:02:51;14.50;;;11.18;;
20982;SDS011;10650;51.528;6.748;2023-03-01T05:05:20;14.55;;;10.60;;
20982;SDS011;10650;51.528;6.748;2023-03-01T05:07:56;15.73;;;11.03;;
20982;SDS011;10650;51.528;6.748;2023-03-01T05:10:26;14.48;;;10.55;;
20982;SDS011;10650;51.528;6.748;2023-03-01T05:12:56;15.98;;;10.63;;
20982;SDS011;10650;51.528;6.748;2023-03-01T05:15:24;13.85;;;10.57;;
20982;SDS011;10650;51.528;6.748;2023-03-01T05:17:53;14.30;;;10.55;;
20982;SDS011;10650;51.528;6.748;2023-03-01T05:20:21;15.70;;;11.20;;
20982;SDS011;10650;51.528;6.748;2023-03-01T05:22:50;13.55;;;11.00;;
20982;SDS011;10650;51.528;6.748;2023-03-01T05:25:19;17.58;;;11.50;;
20982;SDS011;10650;51.528;6.748;2023-03-01T05:27:48;14.70;;;10.82;;
20982;SDS011;10650;51.528;6.748;2023-03-01T05:30:16;15.40;;;11.93;;
20982;SDS011;10650;51.528;6.748;2023-03-01T05:32:45;16.67;;;11.07;;
20982;SDS011;10650;51.528;6.748;2023-03-01T05:35:14;15.63;;;11.15;;
20982;SDS011;10650;51.528;6.748;2023-03-01T05:37:44;16.80;;;11.18;;
20982;SDS011;10650;51.528;6.748;2023-03-01T05:40:15;15.98;;;11.68;;
20982;SDS011;10650;51.528;6.748;2023-03-01T05:42:46;13.43;;;11.00;;
20982;SDS011;10650;51.528;6.748;2023-03-01T05:45:15;16.40;;;11.20;;
20982;SDS011;10650;51.528;6.748;2023-03-01T05:47:44;18.95;;;11.40;;
20982;SDS011;10650;51.528;6.748;2023-03-01T05:50:15;13.73;;;11.00;;
20982;SDS011;10650;51.528;6.748;2023-03-01T05:52:45;14.40;;;11.27;;
20982;SDS011;10650;51.528;6.748;2023-03-01T05:55:14;15.82;;;11.07;;
20982;SDS011;10650;51.528;6.748;2023-03-01T05:57:43;16.48;;;11.25;;
20982;SDS011;10650;51.528;6.748;2023-03-01T06:00:13;14.43;;;11.25;;
20982;SDS011;10650;51.528;6.748;2023-03-01T06:02:42;14.27;;;10.70;;
20982;SDS011;10650;51.528;6.748;2023-03-01T06:05:10;15.52;;;11.18;;
20982;SDS011;10650;51.528;6.748;2023-03-01T06:07:39;15.20;;;11.05;;
20982;SDS011;10650;51.528;6.748;2023-03-01T06:10:08;15.88;;;11.70;;
20982;SDS011;10650;51.528;6.748;2023-03-01T06:12:38;17.30;;;12.35;;
20982;SDS011;10650;51.528;6.748;2023-03-01T06:15:08;14.65;;;10.98;;
20982;SDS011;10650;51.528;6.748;2023-03-01T06:17:39;16.42;;;11.95;;
20982;SDS011;10650;51.528;6.748;2023-03-01T06:20:09;15.48;;;11.40;;
20982;SDS011;10650;51.528;6.748;2023-03-01T06:22:39;15.00;;;11.70;;
20982;SDS011;10650;51.528;6.748;2023-03-01T06:25:08;17.15;;;11.60;;
20982;SDS011;10650;51.528;6.748;2023-03-01T06:27:36;17.08;;;12.00;;
20982;SDS011;10650;51.528;6.748;2023-03-01T06:30:04;15.93;;;12.23;;
20982;SDS011;10650;51.528;6.748;2023-03-01T06:32:34;16.77;;;11.38;;
20982;SDS011;10650;51.528;6.748;2023-03-01T06:35:03;17.30;;;12.18;;
20982;SDS011;10650;51.528;6.748;2023-03-01T06:37:31;14.85;;;12.20;;
20982;SDS011;10650;51.528;6.748;2023-03-01T06:39:59;18.55;;;12.32;;
20982;SDS011;10650;51.528;6.748;2023-03-01T06:42:30;17.05;;;12.23;;
20982;SDS011;10650;51.528;6.748;2023-03-01T06:44:58;17.55;;;13.10;;
20982;SDS011;10650;51.528;6.748;2023-03-01T06:47:26;15.73;;;12.35;;
20982;SDS011;10650;51.528;6.748;2023-03-01T06:49:54;15.80;;;12.50;;
20982;SDS011;10650;51.528;6.748;2023-03-01T06:52:23;15.15;;;12.15;;
20982;SDS011;10650;51.528;6.748;2023-03-01T06:54:50;14.77;;;11.60;;
20982;SDS011;10650;51.528;6.748;2023-03-01T06:57:18;16.75;;;11.95;;
20982;SDS011;10650;51.528;6.748;2023-03-01T06:59:46;18.42;;;12.30;;
20982;SDS011;10650;51.528;6.748;2023-03-01T07:02:14;15.00;;;11.95;;
20982;SDS011;10650;51.528;6.748;2023-03-01T07:04:42;19.13;;;12.20;;
20982;SDS011;10650;51.528;6.748;2023-03-01T07:07:10;14.60;;;11.82;;
20982;SDS011;10650;51.528;6.748;2023-03-01T07:09:39;22.25;;;12.18;;
20982;SDS011;10650;51.528;6.748;2023-03-01T07:12:07;17.88;;;13.57;;
20982;SDS011;10650;51.528;6.748;2023-03-01T07:14:35;19.13;;;12.85;;
20982;SDS011;10650;51.528;6.748;2023-03-01T07:17:02;20.52;;;13.02;;
20982;SDS011;10650;51.528;6.748;2023-03-01T07:19:30;16.60;;;13.20;;
20982;SDS011;10650;51.528;6.748;2023-03-01T07:21:58;20.40;;;13.85;;
20982;SDS011;10650;51.528;6.748;2023-03-01T07:24:26;18.38;;;13.13;;
20982;SDS011;10650;51.528;6.748;2023-03-01T07:26:55;16.42;;;12.13;;
20982;SDS011;10650;51.528;6.748;2023-03-01T07:29:23;17.70;;;12.02;;
20982;SDS011;10650;51.528;6.748;2023-03-01T07:31:51;19.77;;;12.18;;
20982;SDS011;10650;51.528;6.748;2023-03-01T07:34:18;18.92;;;12.48;;
20982;SDS011;10650;51.528;6.748;2023-03-01T07:36:46;15.38;;;11.20;;
20982;SDS011;10650;51.528;6.748;2023-03-01T07:39:14;17.48;;;11.82;;
20982;SDS011;10650;51.528;6.748;2023-03-01T07:41:44;16.10;;;11.90;;
20982;SDS011;10650;51.528;6.748;2023-03-01T07:44:13;14.68;;;11.73;;
20982;SDS011;10650;51.528;6.748;2023-03-01T07:46:42;16.20;;;12.10;;
20982;SDS011;10650;51.528;6.748;2023-03-01T07:49:10;17.55;;;11.68;;
20982;SDS011;10650;51.528;6.748;2023-03-01T07:51:38;17.30;;;12.02;;
20982;SDS011;10650;51.528;6.748;2023-03-01T07:54:06;15.63;;;11.77;;
20982;SDS011;10650;51.528;6.748;2023-03-01T07:56:33;21.48;;;11.80;;
20982;SDS011;10650;51.528;6.748;2023-03-01T07:59:01;17.98;;;12.80;;
20982;SDS011;10650;51.528;6.748;2023-03-01T08:01:30;17.20;;;12.40;;
20982;SDS011;10650;51.528;6.748;2023-03-01T08:03:58;15.30;;;11.55;;
20982;SDS011;10650;51.528;6.748;2023-03-01T08:06:26;18.25;;;11.88;;
20982;SDS011;10650;51.528;6.748;2023-03-01T08:08:54;15.30;;;11.50;;
20982;SDS011;10650;51.528;6.748;2023-03-01T08:11:21;15.23;;;11.50;;
20982;SDS011;10650;51.528;6.748;2023-03-01T08:13:49;15.95;;;11.35;;
20982;SDS011;10650;51.528;6.748;2023-03-01T08:16:18;19.02;;;14.23;;
20982;SDS011;10650;51.528;6.748;2023-03-01T08:18:48;20.08;;;11.68;;
20982;SDS011;10650;51.528;6.748;2023-03-01T08:21:16;22.98;;;13.65;;
20982;SDS011;10650;51.528;6.748;2023-03-01T08:23:44;18.15;;;12.80;;
20982;SDS011;10650;51.528;6.748;2023-03-01T08:26:13;17.45;;;11.15;;
20982;SDS011;10650;51.528;6.748;2023-03-01T08:28:42;15.10;;;11.35;;
20982;SDS011;10650;51.528;6.748;2023-03-01T08:31:13;16.40;;;11.57;;
20982;SDS011;10650;51.528;6.748;2023-03-01T08:33:43;14.35;;;11.40;;
20982;SDS011;10650;51.528;6.748;2023-03-01T08:36:18;15.32;;;10.75;;
20982;SDS011;10650;51.528;6.748;2023-03-01T08:38:47;16.42;;;11.40;;
20982;SDS011;10650;51.528;6.748;2023-03-01T08:41:14;16.42;;;11.50;;
20982;SDS011;10650;51.528;6.748;2023-03-01T08:43:42;13.35;;;10.65;;
20982;SDS011;10650;51.528;6.748;2023-03-01T08:46:10;14.05;;;10.75;;
20982;SDS011;10650;51.528;6.748;2023-03-01T08:48:39;13.88;;;11.10;;
20982;SDS011;10650;51.528;6.748;2023-03-01T08:51:09;14.73;;;11.48;;
20982;SDS011;10650;51.528;6.748;2023-03-01T08:53:40;14.43;;;10.43;;
20982;SDS011;10650;51.528;6.748;2023-03-01T08:56:08;16.50;;;11.20;;
20982;SDS011;10650;51.528;6.748;2023-03-01T08:58:37;15.73;;;11.57;;
20982;SDS011;10650;51.528;6.748;2023-03-01T09:01:09;14.88;;;10.55;;
20982;SDS011;10650;51.528;6.748;2023-03-01T09:03:38;14.05;;;11.18;;
20982;SDS011;10650;51.528;6.748;2023-03-01T09:06:06;13.75;;;10.90;;
20982;SDS011;10650;51.528;6.748;2023-03-01T09:08:35;13.63;;;10.32;;
20982;SDS011;10650;51.528;6.748;2023-03-01T09:11:12;14.35;;;10.98;;
20982;SDS011;10650;51.528;6.748;2023-03-01T09:13:42;17.38;;;11.30;;
20982;SDS011;10650;51.528;6.748;2023-03-01T09:16:11;13.07;;;10.50;;
20982;SDS011;10650;51.528;6.748;2023-03-01T09:18:40;12.68;;;10.23;;
20982;SDS011;10650;51.528;6.748;2023-03-01T09:21:10;13.68;;;10.15;;
20982;SDS011;10650;51.528;6.748;2023-03-01T09:23:40;13.57;;;10.45;;
20982;SDS011;10650;51.528;6.748;2023-03-01T09:26:11;16.42;;;10.55;;
20982;SDS011;10650;51.528;6.748;2023-03-01T09:28:40;14.93;;;10.43;;
20982;SDS011;10650;51.528;6.748;2023-03-01T09:31:08;14.52;;;11.18;;
20982;SDS011;10650;51.528;6.748;2023-03-01T09:33:36;21.17;;;11.02;;
20982;SDS011;10650;51.528;6.748;2023-03-01T09:36:04;14.27;;;11.60;;
20982;SDS011;10650;51.528;6.748;2023-03-01T09:38:34;13.57;;;10.57;;
20982;SDS011;10650;51.528;6.748;2023-03-01T09:41:02;13.20;;;10.30;;
20982;SDS011;10650;51.528;6.748;2023-03-01T09:43:34;16.40;;;10.10;;
20982;SDS011;10650;51.528;6.748;2023-03-01T09:46:09;14.95;;;10.68;;
20982;SDS011;10650;51.528;6.748;2023-03-01T09:48:41;14.18;;;10.38;;
20982;SDS011;10650;51.528;6.748;2023-03-01T09:51:12;13.68;;;9.98;;
20982;SDS011;10650;51.528;6.748;2023-03-01T09:53:45;18.20;;;10.65;;
20982;SDS011;10650;51.528;6.748;2023-03-01T09:56:14;15.40;;;9.88;;
20982;SDS011;10650;51.528;6.748;2023-03-01T09:58:50;15.95;;;9.88;;
20982;SDS011;10650;51.528;6.748;2023-03-01T10:01:26;13.77;;;9.65;;
20982;SDS011;10650;51.528;6.748;2023-03-01T10:04:02;12.65;;;9.30;;
20982;SDS011;10650;51.528;6.748;2023-03-01T10:06:39;12.23;;;9.13;;
20982;SDS011;10650;51.528;6.748;2023-03-01T10:09:13;12.63;;;9.88;;
20982;SDS011;10650;51.528;6.748;2023-03-01T10:11:45;12.70;;;9.27;;
20982;SDS011;10650;51.528;6.748;2023-03-01T10:14:18;12.45;;;9.25;;
20982;SDS011;10650;51.528;6.748;2023-03-01T10:16:58;11.73;;;9.05;;
20982;SDS011;10650;51.528;6.748;2023-03-01T10:19:30;14.30;;;10.18;;
20982;SDS011;10650;51.528;6.748;2023-03-01T10:22:02;13.90;;;10.77;;
20982;SDS011;10650;51.528;6.748;2023-03-01T10:24:36;12.98;;;9.57;;
20982;SDS011;10650;51.528;6.748;2023-03-01T10:27:05;12.07;;;8.30;;
20982;SDS011;10650;51.528;6.748;2023-03-01T10:29:42;10.53;;;8.70;;
20982;SDS011;10650;51.528;6.748;2023-03-01T10:32:15;12.18;;;9.15;;
20982;SDS011;10650;51.528;6.748;2023-03-01T10:34:45;11.32;;;8.77;;
20982;SDS011;10650;51.528;6.748;2023-03-01T10:37:14;11.07;;;8.95;;
20982;SDS011;10650;51.528;6.748;2023-03-01T10:39:54;12.30;;;9.05;;
20982;SDS011;10650;51.528;6.748;2023-03-01T10:42:26;11.45;;;8.95;;
20982;SDS011;10650;51.528;6.748;2023-03-01T10:44:57;11.48;;;9.18;;
20982;SDS011;10650;51.528;6.748;2023-03-01T10:47:41;12.10;;;9.13;;
20982;SDS011;10650;51.528;6.748;2023-03-01T10:50:17;12.15;;;8.52;;
20982;SDS011;10650;51.528;6.748;2023-03-01T10:52:55;11.00;;;8.32;;
20982;SDS011;10650;51.528;6.748;2023-03-01T10:55:27;16.95;;;9.20;;
20982;SDS011;10650;51.528;6.748;2023-03-01T10:58:07;15.95;;;9.30;;
20982;SDS011;10650;51.528;6.748;2023-03-01T11:00:48;11.93;;;8.82;;
20982;SDS011;10650;51.528;6.748;2023-03-01T11:03:18;15.55;;;9.07;;
20982;SDS011;10650;51.528;6.748;2023-03-01T11:05:54;10.48;;;8.82;;
20982;SDS011;10650;51.528;6.748;2023-03-01T11:11:16;11.38;;;8.65;;
20982;SDS011;10650;51.528;6.748;2023-03-01T11:13:54;12.88;;;8.55;;
20982;SDS011;10650;51.528;6.748;2023-03-01T11:16:29;11.65;;;8.43;;
20982;SDS011;10650;51.528;6.748;2023-03-01T11:19:07;11.75;;;8.38;;
20982;SDS011;10650;51.528;6.748;2023-03-01T11:21:43;11.18;;;9.00;;
20982;SDS011;10650;51.528;6.748;2023-03-01T11:24:21;11.05;;;8.73;;
20982;SDS011;10650;51.528;6.748;2023-03-01T11:26:54;10.70;;;8.18;;
20982;SDS011;10650;51.528;6.748;2023-03-01T11:29:26;10.15;;;8.30;;
20982;SDS011;10650;51.528;6.748;2023-03-01T11:34:38;11.18;;;8.25;;
20982;SDS011;10650;51.528;6.748;2023-03-01T11:37:12;10.27;;;8.25;;
20982;SDS011;10650;51.528;6.748;2023-03-01T11:39:53;9.82;;;8.13;;
20982;SDS011;10650;51.528;6.748;2023-03-01T11:42:28;12.65;;;8.93;;
20982;SDS011;10650;51.528;6.748;2023-03-01T11:45:06;10.98;;;8.43;;
20982;SDS011;10650;51.528;6.748;2023-03-01T11:47:42;12.82;;;8.70;;
20982;SDS011;10650;51.528;6.748;2023-03-01T11:50:28;10.50;;;8.68;;
20982;SDS011;10650;51.528;6.748;2023-03-01T11:53:03;9.48;;;7.93;;
20982;SDS011;10650;51.528;6.748;2023-03-01T11:55:51;10.75;;;8.20;;
20982;SDS011;10650;51.528;6.748;2023-03-01T11:58:32;12.00;;;8.43;;
20982;SDS011;10650;51.528;6.748;2023-03-01T12:01:23;8.82;;;7.57;;
20982;SDS011;10650;51.528;6.748;2023-03-01T12:04:08;9.82;;;8.20;;
20982;SDS011;10650;51.528;6.748;2023-03-01T12:06:52;13.57;;;8.73;;
20982;SDS011;10650;51.528;6.748;2023-03-01T12:09:36;11.70;;;8.30;;
20982;SDS011;10650;51.528;6.748;2023-03-01T12:12:19;11.07;;;8.18;;
20982;SDS011;10650;51.528;6.748;2023-03-01T12:15:08;11.63;;;8.68;;
20982;SDS011;10650;51.528;6.748;2023-03-01T12:18:08;10.13;;;8.02;;
20982;SDS011;10650;51.528;6.748;2023-03-01T12:20:50;10.40;;;8.25;;
20982;SDS011;10650;51.528;6.748;2023-03-01T12:23:30;12.75;;;8.57;;
20982;SDS011;10650;51.528;6.748;2023-03-01T12:26:10;9.02;;;7.65;;
20982;SDS011;10650;51.528;6.748;2023-03-01T12:28:49;11.82;;;8.65;;
20982;SDS011;10650;51.528;6.748;2023-03-01T12:31:38;12.23;;;7.90;;
20982;SDS011;10650;51.528;6.748;2023-03-01T12:37:27;9.98;;;7.70;;
20982;SDS011;10650;51.528;6.748;2023-03-01T12:40:12;9.32;;;8.05;;
20982;SDS011;10650;51.528;6.748;2023-03-01T12:42:53;9.95;;;7.55;;
20982;SDS011;10650;51.528;6.748;2023-03-01T12:45:35;10.77;;;7.85;;
20982;SDS011;10650;51.528;6.748;2023-03-01T12:48:30;11.40;;;7.97;;
20982;SDS011;10650;51.528;6.748;2023-03-01T12:51:05;11.75;;;7.85;;
20982;SDS011;10650;51.528;6.748;2023-03-01T12:53:39;10.15;;;7.70;;
20982;SDS011;10650;51.528;6.748;2023-03-01T12:56:10;10.93;;;8.20;;
20982;SDS011;10650;51.528;6.748;2023-03-01T12:58:41;9.02;;;8.10;;
20982;SDS011;10650;51.528;6.748;2023-03-01T13:01:27;9.75;;;7.72;;
20982;SDS011;10650;51.528;6.748;2023-03-01T13:04:06;10.00;;;7.65;;
20982;SDS011;10650;51.528;6.748;2023-03-01T13:06:44;10.63;;;7.53;;
20982;SDS011;10650;51.528;6.748;2023-03-01T13:09:25;11.27;;;7.90;;
20982;SDS011;10650;51.528;6.748;2023-03-01T13:11:59;9.48;;;7.68;;
20982;SDS011;10650;51.528;6.748;2023-03-01T13:14:42;10.48;;;7.88;;
20982;SDS011;10650;51.528;6.748;2023-03-01T13:17:32;9.98;;;7.90;;
20982;SDS011;10650;51.528;6.748;2023-03-01T13:22:40;14.27;;;8.45;;
20982;SDS011;10650;51.528;6.748;2023-03-01T13:25:21;10.45;;;8.50;;
20982;SDS011;10650;51.528;6.748;2023-03-01T13:31:10;10.70;;;8.23;;
20982;SDS011;10650;51.528;6.748;2023-03-01T13:33:58;9.70;;;8.02;;
20982;SDS011;10650;51.528;6.748;2023-03-01T13:36:45;10.15;;;8.77;;
20982;SDS011;10650;51.528;6.748;2023-03-01T13:42:01;11.60;;;8.45;;
20982;SDS011;10650;51.528;6.748;2023-03-01T13:44:30;12.57;;;8.68;;
20982;SDS011;10650;51.528;6.748;2023-03-01T13:47:03;11.10;;;8.63;;
20982;SDS011;10650;51.528;6.748;2023-03-01T13:49:42;11.77;;;8.30;;
20982;SDS011;10650;51.528;6.748;2023-03-01T13:52:22;12.93;;;8.65;;
20982;SDS011;10650;51.528;6.748;2023-03-01T13:54:59;12.75;;;8.45;;
20982;SDS011;10650;51.528;6.748;2023-03-01T13:57:32;10.68;;;8.50;;
20982;SDS011;10650;51.528;6.748;2023-03-01T14:00:05;13.70;;;9.25;;
20982;SDS011;10650;51.528;6.748;2023-03-01T14:02:35;10.88;;;8.23;;
20982;SDS011;10650;51.528;6.748;2023-03-01T14:05:03;12.75;;;8.38;;
20982;SDS011;10650;51.528;6.748;2023-03-01T14:07:31;10.43;;;8.13;;
20982;SDS011;10650;51.528;6.748;2023-03-01T14:10:00;12.63;;;8.80;;
20982;SDS011;10650;51.528;6.748;2023-03-01T14:12:35;10.55;;;8.80;;
20982;SDS011;10650;51.528;6.748;2023-03-01T14:15:09;11.75;;;9.20;;
20982;SDS011;10650;51.528;6.748;2023-03-01T14:17:55;14.65;;;9.70;;
20982;SDS011;10650;51.528;6.748;2023-03-01T14:20:32;11.98;;;9.82;;
20982;SDS011;10650;51.528;6.748;2023-03-01T14:23:08;11.30;;;8.98;;
20982;SDS011;10650;51.528;6.748;2023-03-01T14:25:39;16.70;;;12.93;;
20982;SDS011;10650;51.528;6.748;2023-03-01T14:28:16;11.02;;;8.90;;
20982;SDS011;10650;51.528;6.748;2023-03-01T14:30:46;12.75;;;9.15;;
20982;SDS011;10650;51.528;6.748;2023-03-01T14:33:20;13.32;;;9.32;;
20982;SDS011;10650;51.528;6.748;2023-03-01T14:35:53;12.45;;;9.40;;
20982;SDS011;10650;51.528;6.748;2023-03-01T14:38:23;11.25;;;9.10;;
20982;SDS011;10650;51.528;6.748;2023-03-01T14:40:56;12.52;;;9.43;;
20982;SDS011;10650;51.528;6.748;2023-03-01T14:43:29;11.13;;;9.00;;
20982;SDS011;10650;51.528;6.748;2023-03-01T14:45:58;11.55;;;9.30;;
20982;SDS011;10650;51.528;6.748;2023-03-01T14:48:26;14.82;;;9.75;;
20982;SDS011;10650;51.528;6.748;2023-03-01T14:50:55;12.82;;;9.40;;
20982;SDS011;10650;51.528;6.748;2023-03-01T14:53:24;14.30;;;9.50;;
20982;SDS011;10650;51.528;6.748;2023-03-01T14:55:54;17.80;;;10.20;;
20982;SDS011;10650;51.528;6.748;2023-03-01T14:58:25;12.23;;;9.82;;
20982;SDS011;10650;51.528;6.748;2023-03-01T15:00:55;13.55;;;9.93;;
20982;SDS011;10650;51.528;6.748;2023-03-01T15:03:25;14.90;;;9.53;;
20982;SDS011;10650;51.528;6.748;2023-03-01T15:05:57;12.30;;;9.40;;
20982;SDS011;10650;51.528;6.748;2023-03-01T15:08:27;14.10;;;10.07;;
20982;SDS011;10650;51.528;6.748;2023-03-01T15:11:00;11.73;;;9.48;;
20982;SDS011;10650;51.528;6.748;2023-03-01T15:13:34;11.13;;;9.55;;
20982;SDS011;10650;51.528;6.748;2023-03-01T15:16:05;10.40;;;8.95;;